createdAt,value
2023-08-15T00:00:00.517Z,992.44
2023-08-15T00:00:59.536Z,992.43
2023-08-15T00:01:59.478Z,992.37
2023-08-15T00:02:59.543Z,992.43
2023-08-15T00:03:59.523Z,992.37
2023-08-15T00:04:59.456Z,992.41
2023-08-15T00:05:59.453Z,992.44
2023-08-15T00:06:59.438Z,992.43
2023-08-15T00:07:59.434Z,992.38
2023-08-15T00:08:59.452Z,992.32
2023-08-15T00:09:59.431Z,992.35
2023-08-15T00:10:59.411Z,992.27
2023-08-15T00:11:59.405Z,992.31
2023-08-15T00:12:59.423Z,992.26
2023-08-15T00:13:59.435Z,992.35
2023-08-15T00:14:59.384Z,992.25
2023-08-15T00:15:59.371Z,992.32
2023-08-15T00:16:59.426Z,992.39
2023-08-15T00:17:59.440Z,992.36
2023-08-15T00:18:59.350Z,992.41
2023-08-15T00:19:59.346Z,992.37
2023-08-15T00:20:59.334Z,992.36
2023-08-15T00:21:59.348Z,992.35
2023-08-15T00:22:59.351Z,992.45
2023-08-15T00:23:59.312Z,992.38
2023-08-15T00:24:59.336Z,992.35
2023-08-15T00:25:59.296Z,992.35
2023-08-15T00:26:59.338Z,992.30
2023-08-15T00:27:59.281Z,992.32
2023-08-15T00:28:59.278Z,992.31
2023-08-15T00:29:59.269Z,992.31
2023-08-15T00:30:59.318Z,992.21
2023-08-15T00:31:59.283Z,992.25
2023-08-15T00:32:59.265Z,992.22
2023-08-15T00:33:59.238Z,992.21
2023-08-15T00:34:59.231Z,992.22
2023-08-15T00:35:59.240Z,992.23
2023-08-15T00:36:59.246Z,992.23
2023-08-15T00:37:59.203Z,992.15
2023-08-15T00:38:59.196Z,992.16
2023-08-15T00:39:59.193Z,992.19
2023-08-15T00:40:59.203Z,992.13
2023-08-15T00:41:59.193Z,992.09
2023-08-15T00:42:59.164Z,992.18
2023-08-15T00:43:59.160Z,992.16
2023-08-15T00:44:59.143Z,992.18
2023-08-15T00:45:59.178Z,992.13
2023-08-15T00:46:59.135Z,992.20
2023-08-15T00:47:59.228Z,992.16
2023-08-15T00:48:59.118Z,992.20
2023-08-15T00:49:59.119Z,992.12
2023-08-15T00:50:59.127Z,992.19
2023-08-15T00:51:59.086Z,992.14
2023-08-15T00:52:59.086Z,992.16
2023-08-15T00:53:59.075Z,992.14
2023-08-15T00:54:59.094Z,992.16
2023-08-15T00:55:59.136Z,992.11
2023-08-15T00:56:59.063Z,992.06
2023-08-15T00:57:59.056Z,992.00
2023-08-15T00:58:59.034Z,991.95
2023-08-15T00:59:59.093Z,991.97
2023-08-15T01:00:59.030Z,992.00
2023-08-15T01:01:59.047Z,991.91
2023-08-15T01:02:59.047Z,991.89
2023-08-15T01:03:59.031Z,991.89
2023-08-15T01:04:59.014Z,991.88
2023-08-15T01:05:58.988Z,991.93
2023-08-15T01:06:58.973Z,991.88
2023-08-15T01:07:58.968Z,991.86
2023-08-15T01:08:58.979Z,991.86
2023-08-15T01:09:58.973Z,991.90
2023-08-15T01:10:58.959Z,991.92
2023-08-15T01:11:58.937Z,991.98
2023-08-15T01:12:58.930Z,991.99
2023-08-15T01:13:58.946Z,992.03
2023-08-15T01:14:58.938Z,991.94
2023-08-15T01:15:58.929Z,991.97
2023-08-15T01:16:58.917Z,991.83
2023-08-15T01:17:58.938Z,991.85
2023-08-15T01:18:58.910Z,991.81
2023-08-15T01:19:58.875Z,991.83
2023-08-15T01:20:58.867Z,991.90
2023-08-15T01:21:58.862Z,991.90
2023-08-15T01:22:58.852Z,991.86
2023-08-15T01:23:58.868Z,991.88
2023-08-15T01:24:58.837Z,991.84
2023-08-15T01:25:58.833Z,991.84
2023-08-15T01:26:58.818Z,991.93
2023-08-15T01:27:58.835Z,991.91
2023-08-15T01:28:58.833Z,991.93
2023-08-15T01:29:58.797Z,991.85
2023-08-15T01:30:58.786Z,991.91
2023-08-15T01:31:58.822Z,991.86
2023-08-15T01:32:58.845Z,991.85
2023-08-15T01:33:58.766Z,991.80
2023-08-15T01:34:58.758Z,991.85
2023-08-15T01:35:58.752Z,991.82
2023-08-15T01:36:58.748Z,991.84
2023-08-15T01:37:58.755Z,991.83
2023-08-15T01:38:58.726Z,991.84
2023-08-15T01:39:58.733Z,991.88
2023-08-15T01:40:58.707Z,991.85
2023-08-15T01:41:58.752Z,991.85
2023-08-15T01:42:58.716Z,991.83
2023-08-15T01:43:58.681Z,991.82
2023-08-15T01:44:58.673Z,991.83
2023-08-15T01:45:58.704Z,991.89
2023-08-15T01:46:58.717Z,991.83
2023-08-15T01:47:58.667Z,991.83
2023-08-15T01:48:58.648Z,991.82
2023-08-15T01:49:58.637Z,991.81
2023-08-15T01:50:58.627Z,991.79
2023-08-15T01:51:58.746Z,991.85
2023-08-15T01:52:58.609Z,991.85
2023-08-15T01:53:58.601Z,991.79
2023-08-15T01:54:59.602Z,991.77
2023-08-15T01:55:58.616Z,991.78
2023-08-15T01:56:58.606Z,991.73
2023-08-15T01:57:58.575Z,991.75
2023-08-15T01:58:58.563Z,991.71
2023-08-15T01:59:58.559Z,991.64
2023-08-15T02:00:58.601Z,991.72
2023-08-15T02:01:58.552Z,991.70
2023-08-15T02:02:58.583Z,991.70
2023-08-15T02:03:58.539Z,991.64
2023-08-15T02:04:58.517Z,991.62
2023-08-15T02:05:58.635Z,991.63
2023-08-15T02:06:58.510Z,991.59
2023-08-15T02:07:58.497Z,991.57
2023-08-15T02:08:58.486Z,991.56
2023-08-15T02:09:58.509Z,991.58
2023-08-15T02:10:58.532Z,991.64
2023-08-15T02:11:58.468Z,991.64
2023-08-15T02:12:58.462Z,991.61
2023-08-15T02:13:58.455Z,991.61
2023-08-15T02:14:58.473Z,991.56
2023-08-15T02:15:58.559Z,991.49
2023-08-15T02:16:58.429Z,991.47
2023-08-15T02:17:58.447Z,991.50
2023-08-15T02:18:58.416Z,991.47
2023-08-15T02:19:58.436Z,991.44
2023-08-15T02:20:58.403Z,991.41
2023-08-15T02:21:58.386Z,991.46
2023-08-15T02:22:58.384Z,991.42
2023-08-15T02:23:58.400Z,991.43
2023-08-15T02:24:58.398Z,991.39
2023-08-15T02:25:58.358Z,991.39
2023-08-15T02:26:58.357Z,991.45
2023-08-15T02:27:58.345Z,991.46
2023-08-15T02:28:58.369Z,991.53
2023-08-15T02:29:58.331Z,991.56
2023-08-15T02:30:58.408Z,991.59
2023-08-15T02:31:58.314Z,991.53
2023-08-15T02:32:58.376Z,991.55
2023-08-15T02:33:58.330Z,991.49
2023-08-15T02:34:58.296Z,991.53
2023-08-15T02:35:58.281Z,991.58
2023-08-15T02:36:58.276Z,991.61
2023-08-15T02:37:58.279Z,991.62
2023-08-15T02:38:58.284Z,991.70
2023-08-15T02:39:58.248Z,991.72
2023-08-15T02:40:58.247Z,991.79
2023-08-15T02:41:58.232Z,991.85
2023-08-15T02:42:59.254Z,991.79
2023-08-15T02:43:58.252Z,991.78
2023-08-15T02:44:58.206Z,991.83
2023-08-15T02:45:58.201Z,991.80
2023-08-15T02:46:58.227Z,991.81
2023-08-15T02:47:58.220Z,991.77
2023-08-15T02:48:58.204Z,991.71
2023-08-15T02:49:58.174Z,991.74
2023-08-15T02:50:58.162Z,991.71
2023-08-15T02:51:58.157Z,991.70
2023-08-15T02:52:58.170Z,991.70
2023-08-15T02:53:58.146Z,991.67
2023-08-15T02:54:58.128Z,991.67
2023-08-15T02:55:58.125Z,991.72
2023-08-15T02:56:58.139Z,991.67
2023-08-15T02:57:58.138Z,991.72
2023-08-15T02:58:58.101Z,991.71
2023-08-15T02:59:58.089Z,991.84
2023-08-15T03:00:58.111Z,991.82
2023-08-15T03:01:58.118Z,991.77
2023-08-15T03:02:58.138Z,991.75
2023-08-15T03:03:58.082Z,991.73
2023-08-15T03:04:58.054Z,991.74
2023-08-15T03:05:58.045Z,991.70
2023-08-15T03:06:58.063Z,991.66
2023-08-15T03:07:58.036Z,991.68
2023-08-15T03:08:58.022Z,991.72
2023-08-15T03:09:58.019Z,991.69
2023-08-15T03:10:58.006Z,991.69
2023-08-15T03:11:58.027Z,991.69
2023-08-15T03:12:57.993Z,991.67
2023-08-15T03:13:57.983Z,991.74
2023-08-15T03:14:57.987Z,991.75
2023-08-15T03:15:58.004Z,991.66
2023-08-15T03:16:57.989Z,991.62
2023-08-15T03:17:57.970Z,991.64
2023-08-15T03:18:57.942Z,991.67
2023-08-15T03:19:57.935Z,991.67
2023-08-15T03:20:57.965Z,991.68
2023-08-15T03:21:57.930Z,991.73
2023-08-15T03:22:57.917Z,991.69
2023-08-15T03:23:58.928Z,991.65
2023-08-15T03:24:57.903Z,991.70
2023-08-15T03:25:57.922Z,991.69
2023-08-15T03:26:57.885Z,991.63
2023-08-15T03:27:57.880Z,991.71
2023-08-15T03:28:57.872Z,991.66
2023-08-15T03:29:57.896Z,991.68
2023-08-15T03:30:58.002Z,991.66
2023-08-15T03:31:57.890Z,991.66
2023-08-15T03:32:57.866Z,991.64
2023-08-15T03:33:57.833Z,991.72
2023-08-15T03:34:57.859Z,991.66
2023-08-15T03:35:57.823Z,991.65
2023-08-15T03:36:57.809Z,991.56
2023-08-15T03:37:57.791Z,991.60
2023-08-15T03:38:57.794Z,991.59
2023-08-15T03:39:57.807Z,991.70
2023-08-15T03:40:57.777Z,991.71
2023-08-15T03:41:57.775Z,991.74
2023-08-15T03:42:57.772Z,991.76
2023-08-15T03:43:57.779Z,991.71
2023-08-15T03:44:57.769Z,991.69
2023-08-15T03:45:57.819Z,991.57
2023-08-15T03:46:57.754Z,991.64
2023-08-15T03:47:57.767Z,991.61
2023-08-15T03:48:57.732Z,991.56
2023-08-15T03:49:57.715Z,991.52
2023-08-15T03:50:57.699Z,991.52
2023-08-15T03:51:57.687Z,991.49
2023-08-15T03:52:57.676Z,991.54
2023-08-15T03:53:57.698Z,991.53
2023-08-15T03:54:57.661Z,991.53
2023-08-15T03:55:57.670Z,991.60
2023-08-15T03:56:57.640Z,991.66
2023-08-15T03:57:58.663Z,991.62
2023-08-15T03:58:57.657Z,991.57
2023-08-15T03:59:57.632Z,991.62
2023-08-15T04:00:57.622Z,991.62
2023-08-15T04:01:59.246Z,991.61
2023-08-15T04:02:58.726Z,991.59
2023-08-15T04:03:57.606Z,991.65
2023-08-15T04:04:57.587Z,991.69
2023-08-15T04:05:57.593Z,991.71
2023-08-15T04:06:57.575Z,991.72
2023-08-15T04:07:57.590Z,991.74
2023-08-15T04:08:57.557Z,991.76
2023-08-15T04:09:57.551Z,991.75
2023-08-15T04:10:57.542Z,991.80
2023-08-15T04:11:57.531Z,991.80
2023-08-15T04:12:57.551Z,991.76
2023-08-15T04:13:57.520Z,991.82
2023-08-15T04:14:57.510Z,991.80
2023-08-15T04:15:57.553Z,991.81
2023-08-15T04:16:57.535Z,991.80
2023-08-15T04:17:57.595Z,991.85
2023-08-15T04:18:57.496Z,991.83
2023-08-15T04:19:57.472Z,991.93
2023-08-15T04:20:57.462Z,991.95
2023-08-15T04:21:57.473Z,991.92
2023-08-15T04:22:57.444Z,991.93
2023-08-15T04:23:57.433Z,991.90
2023-08-15T04:24:57.430Z,991.91
2023-08-15T04:25:57.427Z,991.92
2023-08-15T04:26:57.432Z,991.94
2023-08-15T04:27:57.413Z,991.94
2023-08-15T04:28:57.410Z,991.94
2023-08-15T04:29:57.385Z,991.94
2023-08-15T04:30:57.415Z,991.96
2023-08-15T04:31:57.469Z,991.97
2023-08-15T04:32:57.380Z,991.98
2023-08-15T04:33:57.357Z,991.95
2023-08-15T04:34:57.341Z,991.98
2023-08-15T04:35:57.368Z,991.99
2023-08-15T04:36:57.327Z,992.06
2023-08-15T04:37:57.329Z,992.08
2023-08-15T04:38:57.313Z,992.06
2023-08-15T04:39:57.323Z,992.16
2023-08-15T04:40:59.250Z,992.27
2023-08-15T04:41:58.295Z,992.22
2023-08-15T04:42:57.277Z,992.24
2023-08-15T04:43:57.281Z,992.20
2023-08-15T04:44:57.266Z,992.25
2023-08-15T04:45:57.353Z,992.29
2023-08-15T04:46:57.252Z,992.24
2023-08-15T04:47:57.336Z,992.26
2023-08-15T04:48:57.240Z,992.35
2023-08-15T04:49:57.267Z,992.33
2023-08-15T04:50:57.289Z,992.38
2023-08-15T04:51:57.209Z,992.35
2023-08-15T04:52:57.209Z,992.37
2023-08-15T04:53:57.198Z,992.35
2023-08-15T04:54:57.234Z,992.33
2023-08-15T04:55:57.187Z,992.37
2023-08-15T04:56:57.180Z,992.35
2023-08-15T04:57:57.165Z,992.43
2023-08-15T04:58:57.158Z,992.36
2023-08-15T04:59:57.172Z,992.42
2023-08-15T05:00:57.142Z,992.47
2023-08-15T05:01:57.133Z,992.50
2023-08-15T05:02:57.181Z,992.55
2023-08-15T05:03:57.145Z,992.53
2023-08-15T05:04:57.171Z,992.59
2023-08-15T05:05:57.111Z,992.64
2023-08-15T05:06:57.097Z,992.68
2023-08-15T05:07:57.108Z,992.63
2023-08-15T05:08:57.111Z,992.71
2023-08-15T05:09:57.075Z,992.63
2023-08-15T05:10:57.069Z,992.63
2023-08-15T05:11:57.068Z,992.54
2023-08-15T05:12:57.054Z,992.49
2023-08-15T05:13:57.074Z,992.49
2023-08-15T05:14:57.046Z,992.53
2023-08-15T05:15:57.060Z,992.57
2023-08-15T05:16:57.029Z,992.64
2023-08-15T05:17:57.057Z,992.73
2023-08-15T05:18:57.034Z,992.76
2023-08-15T05:19:56.997Z,992.69
2023-08-15T05:20:56.990Z,992.64
2023-08-15T05:21:57.024Z,992.59
2023-08-15T05:22:57.002Z,992.64
2023-08-15T05:23:56.973Z,992.74
2023-08-15T05:24:56.980Z,992.79
2023-08-15T05:25:56.960Z,992.90
2023-08-15T05:26:56.955Z,993.20
2023-08-15T05:27:56.964Z,993.61
2023-08-15T05:28:56.922Z,993.75
2023-08-15T05:29:56.922Z,993.78
2023-08-15T05:30:56.943Z,993.86
2023-08-15T05:31:56.934Z,993.72
2023-08-15T05:32:56.949Z,993.46
2023-08-15T05:33:56.881Z,993.33
2023-08-15T05:34:56.882Z,993.19
2023-08-15T05:35:56.872Z,993.17
2023-08-15T05:36:56.897Z,993.22
2023-08-15T05:37:56.858Z,993.29
2023-08-15T05:38:56.844Z,993.27
2023-08-15T05:39:56.841Z,993.33
2023-08-15T05:40:56.831Z,993.33
2023-08-15T05:41:56.850Z,993.32
2023-08-15T05:42:56.820Z,993.39
2023-08-15T05:43:56.813Z,993.37
2023-08-15T05:44:56.801Z,993.40
2023-08-15T05:45:56.816Z,993.27
2023-08-15T05:46:56.822Z,993.33
2023-08-15T05:47:56.825Z,993.34
2023-08-15T05:48:56.765Z,993.24
2023-08-15T05:49:56.757Z,993.15
2023-08-15T05:50:56.781Z,993.14
2023-08-15T05:51:56.734Z,993.14
2023-08-15T05:52:57.740Z,993.16
2023-08-15T05:53:56.733Z,993.19
2023-08-15T05:54:56.733Z,993.18
2023-08-15T05:55:56.733Z,993.23
2023-08-15T05:56:56.707Z,993.18
2023-08-15T05:57:57.790Z,993.22
2023-08-15T05:58:57.692Z,993.18
2023-08-15T05:59:56.682Z,993.13
2023-08-15T06:00:56.728Z,993.08
2023-08-15T06:01:56.669Z,993.08
2023-08-15T06:02:56.713Z,993.15
2023-08-15T06:03:56.726Z,993.19
2023-08-15T06:04:56.668Z,993.18
2023-08-15T06:05:56.664Z,993.18
2023-08-15T06:06:56.622Z,993.06
2023-08-15T06:07:56.627Z,993.08
2023-08-15T06:08:56.634Z,993.07
2023-08-15T06:09:56.620Z,993.03
2023-08-15T06:10:56.592Z,992.99
2023-08-15T06:11:56.587Z,993.04
2023-08-15T06:12:56.618Z,993.12
2023-08-15T06:13:56.576Z,993.06
2023-08-15T06:14:56.591Z,992.97
2023-08-15T06:15:56.555Z,992.94
2023-08-15T06:16:56.582Z,992.99
2023-08-15T06:17:56.570Z,992.93
2023-08-15T06:18:56.527Z,993.00
2023-08-15T06:19:56.542Z,993.05
2023-08-15T06:20:56.508Z,992.95
2023-08-15T06:21:56.503Z,992.83
2023-08-15T06:22:56.511Z,992.93
2023-08-15T06:23:56.552Z,992.79
2023-08-15T06:24:56.506Z,992.74
2023-08-15T06:25:56.472Z,992.71
2023-08-15T06:26:56.466Z,992.75
2023-08-15T06:27:56.460Z,992.77
2023-08-15T06:28:56.503Z,992.63
2023-08-15T06:29:56.439Z,992.44
2023-08-15T06:30:56.543Z,992.33
2023-08-15T06:31:56.428Z,992.26
2023-08-15T06:32:56.451Z,992.24
2023-08-15T06:33:56.448Z,992.26
2023-08-15T06:34:56.402Z,992.51
2023-08-15T06:35:56.413Z,992.47
2023-08-15T06:36:56.385Z,992.64
2023-08-15T06:37:56.378Z,992.55
2023-08-15T06:38:56.404Z,992.45
2023-08-15T06:39:56.367Z,992.54
2023-08-15T06:40:56.381Z,992.51
2023-08-15T06:41:56.399Z,992.50
2023-08-15T06:42:56.385Z,992.56
2023-08-15T06:43:56.348Z,992.64
2023-08-15T06:44:56.351Z,992.65
2023-08-15T06:45:56.340Z,992.69
2023-08-15T06:46:56.360Z,992.68
2023-08-15T06:47:56.363Z,992.64
2023-08-15T06:48:56.305Z,992.71
2023-08-15T06:49:56.278Z,992.72
2023-08-15T06:50:56.379Z,992.85
2023-08-15T06:51:56.482Z,992.88
2023-08-15T06:52:56.257Z,992.89
2023-08-15T06:53:56.243Z,992.97
2023-08-15T06:54:56.254Z,993.13
2023-08-15T06:55:57.257Z,992.91
2023-08-15T06:56:56.225Z,993.11
2023-08-15T06:57:56.216Z,993.14
2023-08-15T06:58:56.224Z,993.06
2023-08-15T06:59:56.222Z,993.11
2023-08-15T07:00:56.269Z,993.02
2023-08-15T07:01:56.192Z,993.11
2023-08-15T07:02:56.291Z,993.15
2023-08-15T07:03:56.216Z,993.17
2023-08-15T07:04:56.187Z,993.28
2023-08-15T07:05:56.157Z,993.23
2023-08-15T07:06:56.146Z,993.39
2023-08-15T07:07:56.133Z,993.16
2023-08-15T07:08:56.133Z,993.30
2023-08-15T07:09:56.146Z,993.34
2023-08-15T07:10:56.110Z,993.21
2023-08-15T07:11:56.116Z,993.23
2023-08-15T07:12:56.096Z,993.25
2023-08-15T07:13:56.099Z,993.29
2023-08-15T07:14:56.117Z,993.19
2023-08-15T07:15:56.097Z,993.27
2023-08-15T07:16:56.100Z,993.11
2023-08-15T07:17:56.115Z,993.15
2023-08-15T07:18:56.082Z,993.32
2023-08-15T07:19:56.075Z,993.32
2023-08-15T07:20:56.045Z,993.23
2023-08-15T07:21:56.038Z,993.25
2023-08-15T07:22:56.059Z,993.37
2023-08-15T07:23:56.048Z,993.37
2023-08-15T07:24:56.013Z,993.35
2023-08-15T07:25:56.004Z,993.27
2023-08-15T07:26:55.999Z,993.32
2023-08-15T07:27:55.991Z,993.40
2023-08-15T07:28:56.010Z,993.28
2023-08-15T07:29:56.002Z,993.31
2023-08-15T07:30:55.974Z,993.33
2023-08-15T07:31:55.989Z,993.32
2023-08-15T07:32:56.004Z,993.31
2023-08-15T07:33:56.029Z,993.28
2023-08-15T07:34:55.945Z,993.25
2023-08-15T07:35:55.945Z,993.21
2023-08-15T07:36:55.934Z,993.21
2023-08-15T07:37:55.973Z,993.28
2023-08-15T07:38:55.924Z,993.24
2023-08-15T07:39:55.929Z,993.30
2023-08-15T07:40:55.903Z,993.26
2023-08-15T07:41:56.899Z,993.22
2023-08-15T07:42:55.931Z,993.24
2023-08-15T07:43:55.890Z,993.23
2023-08-15T07:44:55.888Z,993.25
2023-08-15T07:45:55.961Z,993.15
2023-08-15T07:46:55.896Z,993.21
2023-08-15T07:47:55.922Z,993.20
2023-08-15T07:48:57.155Z,993.17
2023-08-15T07:49:55.850Z,993.20
2023-08-15T07:50:55.883Z,993.23
2023-08-15T07:51:55.883Z,993.21
2023-08-15T07:52:55.834Z,993.26
2023-08-15T07:53:55.834Z,993.29
2023-08-15T07:54:55.829Z,993.26
2023-08-15T07:55:55.829Z,993.29
2023-08-15T07:56:55.835Z,993.26
2023-08-15T07:57:55.814Z,993.29
2023-08-15T07:58:55.973Z,993.32
2023-08-15T07:59:55.802Z,993.35
2023-08-15T08:00:55.826Z,993.27
2023-08-15T08:01:55.825Z,993.26
2023-08-15T08:02:55.802Z,993.32
2023-08-15T08:03:55.777Z,993.24
2023-08-15T08:04:55.803Z,993.27
2023-08-15T08:05:55.816Z,993.21
2023-08-15T08:06:55.769Z,993.25
2023-08-15T08:07:55.756Z,993.20
2023-08-15T08:08:55.762Z,993.21
2023-08-15T08:09:55.739Z,993.22
2023-08-15T08:10:55.768Z,993.27
2023-08-15T08:11:55.748Z,993.28
2023-08-15T08:12:55.746Z,993.25
2023-08-15T08:13:55.725Z,993.16
2023-08-15T08:14:57.961Z,993.15
2023-08-15T08:15:56.776Z,993.16
2023-08-15T08:16:55.693Z,993.15
2023-08-15T08:17:55.839Z,993.14
2023-08-15T08:18:55.688Z,993.10
2023-08-15T08:19:55.707Z,993.15
2023-08-15T08:20:55.710Z,993.12
2023-08-15T08:21:55.679Z,993.19
2023-08-15T08:22:55.693Z,993.16
2023-08-15T08:23:55.671Z,993.12
2023-08-15T08:24:55.679Z,993.12
2023-08-15T08:25:55.668Z,993.12
2023-08-15T08:26:55.650Z,993.15
2023-08-15T08:27:55.660Z,993.14
2023-08-15T08:28:55.641Z,993.13
2023-08-15T08:29:55.662Z,993.06
2023-08-15T08:30:55.638Z,993.06
2023-08-15T08:31:55.686Z,993.05
2023-08-15T08:32:55.657Z,993.17
2023-08-15T08:33:55.622Z,993.13
2023-08-15T08:34:55.637Z,993.14
2023-08-15T08:35:55.609Z,993.11
2023-08-15T08:36:55.602Z,993.08
2023-08-15T08:37:55.685Z,993.09
2023-08-15T08:38:55.615Z,993.10
2023-08-15T08:39:55.606Z,993.09
2023-08-15T08:40:55.580Z,993.08
2023-08-15T08:41:55.579Z,993.10
2023-08-15T08:42:55.573Z,993.06
2023-08-15T08:43:55.592Z,993.12
2023-08-15T08:44:55.557Z,993.07
2023-08-15T08:45:55.677Z,993.14
2023-08-15T08:46:55.544Z,993.07
2023-08-15T08:47:55.705Z,993.07
2023-08-15T08:48:55.577Z,993.16
2023-08-15T08:49:55.543Z,993.16
2023-08-15T08:50:55.523Z,993.18
2023-08-15T08:51:55.530Z,993.15
2023-08-15T08:52:55.566Z,993.20
2023-08-15T08:53:55.539Z,993.21
2023-08-15T08:54:57.583Z,993.21
2023-08-15T08:55:56.511Z,993.18
2023-08-15T08:56:55.512Z,993.24
2023-08-15T08:57:55.516Z,993.19
2023-08-15T08:58:56.527Z,993.17
2023-08-15T08:59:55.488Z,993.16
2023-08-15T09:00:55.482Z,993.12
2023-08-15T09:01:55.465Z,993.20
2023-08-15T09:02:55.602Z,993.22
2023-08-15T09:03:55.456Z,993.21
2023-08-15T09:04:55.453Z,993.18
2023-08-15T09:05:55.460Z,993.20
2023-08-15T09:06:55.480Z,993.17
2023-08-15T09:07:55.459Z,993.24
2023-08-15T09:08:55.452Z,993.18
2023-08-15T09:09:55.424Z,993.27
2023-08-15T09:10:55.419Z,993.22
2023-08-15T09:11:55.434Z,993.20
2023-08-15T09:12:55.413Z,993.15
2023-08-15T09:13:55.411Z,993.10
2023-08-15T09:14:55.442Z,993.17
2023-08-15T09:15:55.424Z,993.11
2023-08-15T09:16:55.405Z,993.17
2023-08-15T09:17:55.385Z,993.16
2023-08-15T09:18:55.364Z,993.15
2023-08-15T09:19:55.363Z,993.14
2023-08-15T09:20:55.377Z,993.16
2023-08-15T09:21:55.370Z,993.19
2023-08-15T09:22:55.343Z,993.22
2023-08-15T09:23:55.339Z,993.19
2023-08-15T09:24:55.332Z,993.15
2023-08-15T09:25:55.347Z,993.21
2023-08-15T09:26:55.317Z,993.19
2023-08-15T09:27:55.329Z,993.18
2023-08-15T09:28:55.311Z,993.20
2023-08-15T09:29:55.311Z,993.20
2023-08-15T09:30:55.340Z,993.15
2023-08-15T09:31:55.295Z,993.18
2023-08-15T09:32:55.349Z,993.16
2023-08-15T09:33:55.275Z,993.24
2023-08-15T09:34:55.294Z,993.27
2023-08-15T09:35:59.029Z,993.26
2023-08-15T09:36:56.263Z,993.24
2023-08-15T09:37:55.250Z,993.28
2023-08-15T09:38:55.246Z,993.34
2023-08-15T09:39:55.291Z,993.34
2023-08-15T09:40:55.247Z,993.35
2023-08-15T09:41:55.228Z,993.37
2023-08-15T09:42:55.399Z,993.27
2023-08-15T09:43:55.219Z,993.25
2023-08-15T09:44:55.243Z,993.28
2023-08-15T09:45:55.205Z,993.26
2023-08-15T09:46:55.231Z,993.34
2023-08-15T09:47:55.226Z,993.28
2023-08-15T09:48:55.187Z,993.31
2023-08-15T09:49:55.206Z,993.31
2023-08-15T09:50:55.194Z,993.25
2023-08-15T09:51:55.169Z,993.35
2023-08-15T09:52:55.162Z,993.35
2023-08-15T09:53:55.157Z,993.31
2023-08-15T09:54:55.177Z,993.25
2023-08-15T09:55:55.157Z,993.28
2023-08-15T09:56:55.144Z,993.21
2023-08-15T09:57:55.135Z,993.20
2023-08-15T09:58:55.122Z,993.27
2023-08-15T09:59:55.141Z,993.30
2023-08-15T10:00:55.185Z,993.28
2023-08-15T10:01:55.113Z,993.25
2023-08-15T10:02:55.142Z,993.19
2023-08-15T10:03:55.181Z,993.23
2023-08-15T10:04:55.109Z,993.24
2023-08-15T10:05:55.135Z,993.17
2023-08-15T10:06:55.078Z,993.21
2023-08-15T10:07:55.076Z,993.21
2023-08-15T10:08:55.087Z,993.26
2023-08-15T10:09:55.050Z,993.19
2023-08-15T10:10:55.079Z,993.20
2023-08-15T10:11:55.036Z,993.16
2023-08-15T10:12:55.040Z,993.14
2023-08-15T10:13:55.053Z,993.18
2023-08-15T10:14:55.039Z,993.14
2023-08-15T10:15:55.043Z,993.18
2023-08-15T10:16:55.079Z,993.22
2023-08-15T10:17:55.054Z,993.19
2023-08-15T10:18:55.017Z,993.15
2023-08-15T10:19:54.969Z,993.17
2023-08-15T10:20:55.978Z,993.17
2023-08-15T10:21:54.973Z,993.25
2023-08-15T10:22:54.984Z,993.25
2023-08-15T10:23:54.970Z,993.26
2023-08-15T10:24:54.947Z,993.31
2023-08-15T10:25:54.947Z,993.30
2023-08-15T10:26:54.942Z,993.33
2023-08-15T10:27:54.957Z,993.35
2023-08-15T10:28:54.916Z,993.30
2023-08-15T10:29:54.925Z,993.26
2023-08-15T10:30:55.046Z,993.29
2023-08-15T10:31:54.931Z,993.23
2023-08-15T10:32:54.943Z,993.27
2023-08-15T10:33:54.895Z,993.19
2023-08-15T10:34:54.877Z,993.27
2023-08-15T10:35:54.872Z,993.23
2023-08-15T10:36:54.895Z,993.32
2023-08-15T10:37:54.852Z,993.24
2023-08-15T10:38:54.849Z,993.25
2023-08-15T10:39:54.836Z,993.33
2023-08-15T10:40:54.833Z,993.26
2023-08-15T10:41:54.855Z,993.26
2023-08-15T10:42:54.813Z,993.30
2023-08-15T10:43:54.828Z,993.24
2023-08-15T10:44:54.807Z,993.25
2023-08-15T10:45:54.862Z,993.25
2023-08-15T10:46:54.820Z,993.26
2023-08-15T10:47:54.832Z,993.29
2023-08-15T10:49:55.783Z,993.29
2023-08-15T10:50:54.785Z,993.19
2023-08-15T10:51:54.752Z,993.20
2023-08-15T10:52:55.707Z,993.21
2023-08-15T10:53:54.748Z,993.24
2023-08-15T10:54:54.732Z,993.24
2023-08-15T10:55:54.754Z,993.16
2023-08-15T10:56:54.734Z,993.18
2023-08-15T10:57:54.710Z,993.20
2023-08-15T10:58:54.704Z,993.23
2023-08-15T10:59:54.720Z,993.20
2023-08-15T11:00:54.707Z,993.13
2023-08-15T11:01:54.735Z,993.25
2023-08-15T11:02:54.720Z,993.22
2023-08-15T11:03:54.731Z,993.25
2023-08-15T11:04:54.696Z,993.26
2023-08-15T11:05:54.652Z,993.22
2023-08-15T11:06:54.652Z,993.32
2023-08-15T11:07:54.637Z,993.29
2023-08-15T11:08:54.660Z,993.28
2023-08-15T11:09:54.652Z,993.32
2023-08-15T11:10:54.615Z,993.28
2023-08-15T11:11:54.608Z,993.34
2023-08-15T11:12:54.599Z,993.33
2023-08-15T11:13:54.615Z,993.25
2023-08-15T11:14:54.607Z,993.26
2023-08-15T11:15:54.589Z,993.28
2023-08-15T11:16:54.572Z,993.15
2023-08-15T11:17:54.661Z,993.20
2023-08-15T11:18:54.571Z,993.16
2023-08-15T11:19:54.541Z,993.17
2023-08-15T11:20:54.533Z,993.16
2023-08-15T11:21:54.527Z,993.17
2023-08-15T11:22:54.521Z,993.20
2023-08-15T11:23:54.537Z,993.20
2023-08-15T11:24:54.521Z,993.25
2023-08-15T11:25:54.502Z,993.23
2023-08-15T11:26:54.500Z,993.20
2023-08-15T11:27:54.510Z,993.17
2023-08-15T11:28:54.513Z,993.23
2023-08-15T11:29:54.472Z,993.23
2023-08-15T11:30:54.542Z,993.25
2023-08-15T11:31:54.507Z,993.19
2023-08-15T11:32:54.529Z,993.19
2023-08-15T11:33:54.445Z,993.20
2023-08-15T11:34:55.290Z,993.15
2023-08-15T11:35:54.427Z,993.13
2023-08-15T11:36:54.424Z,993.25
2023-08-15T11:37:54.442Z,993.14
2023-08-15T11:38:54.421Z,993.18
2023-08-15T11:39:54.424Z,993.16
2023-08-15T11:40:54.401Z,993.21
2023-08-15T11:41:54.393Z,993.12
2023-08-15T11:42:54.410Z,993.15
2023-08-15T11:43:54.380Z,993.14
2023-08-15T11:44:54.412Z,993.14
2023-08-15T11:45:54.406Z,993.10
2023-08-15T11:46:55.893Z,993.15
2023-08-15T11:47:55.417Z,993.10
2023-08-15T11:48:54.348Z,993.17
2023-08-15T11:49:54.342Z,993.16
2023-08-15T11:50:54.323Z,993.13
2023-08-15T11:51:54.348Z,993.10
2023-08-15T11:52:54.310Z,993.15
2023-08-15T11:53:54.306Z,993.14
2023-08-15T11:54:54.300Z,993.11
2023-08-15T11:55:54.287Z,993.13
2023-08-15T11:56:54.617Z,993.13
2023-08-15T11:57:54.278Z,993.12
2023-08-15T11:58:54.261Z,993.13
2023-08-15T11:59:54.261Z,993.14
2023-08-15T12:00:54.257Z,993.08
2023-08-15T12:01:54.267Z,993.08
2023-08-15T12:02:54.264Z,993.04
2023-08-15T12:03:54.241Z,993.08
2023-08-15T12:04:54.727Z,993.00
2023-08-15T12:05:54.210Z,993.01
2023-08-15T12:06:54.233Z,992.99
2023-08-15T12:07:54.200Z,993.02
2023-08-15T12:08:54.194Z,992.97
2023-08-15T12:09:54.189Z,992.99
2023-08-15T12:10:54.207Z,993.03
2023-08-15T12:11:54.197Z,993.03
2023-08-15T12:12:54.177Z,993.02
2023-08-15T12:13:54.160Z,993.02
2023-08-15T12:14:54.147Z,993.09
2023-08-15T12:15:54.188Z,993.15
2023-08-15T12:16:54.135Z,993.12
2023-08-15T12:17:54.176Z,993.10
2023-08-15T12:18:54.124Z,993.12
2023-08-15T12:19:54.127Z,993.10
2023-08-15T12:20:54.130Z,993.09
2023-08-15T12:21:54.127Z,993.12
2023-08-15T12:22:54.085Z,993.13
2023-08-15T12:23:54.084Z,993.18
2023-08-15T12:24:54.092Z,993.14
2023-08-15T12:25:54.089Z,993.15
2023-08-15T12:26:54.059Z,993.16
2023-08-15T12:27:54.067Z,993.13
2023-08-15T12:28:54.045Z,993.13